createdAt,value
2019-01-24T00:00:33.362Z,29.48
2019-01-24T00:03:03.340Z,26.80
2019-01-24T00:05:35.786Z,25.48
2019-01-24T00:09:18.353Z,26.05
2019-01-24T00:19:27.499Z,26.25
2019-01-24T00:21:57.875Z,28.62
2019-01-24T00:24:28.133Z,26.70
2019-01-24T00:26:58.412Z,29.52
2019-01-24T00:29:28.617Z,24.02
2019-01-24T00:31:58.914Z,26.25
2019-01-24T00:35:41.880Z,29.85
2019-01-24T01:16:13.109Z,25.55
2019-01-24T01:28:37.922Z,31.12
2019-01-24T01:41:34.596Z,18.20
2019-01-24T01:44:05.031Z,26.00
2019-01-24T01:53:17.780Z,18.57
2019-01-24T01:55:47.690Z,12.37
2019-01-24T01:58:17.612Z,28.62
2019-01-24T02:00:47.822Z,24.87
2019-01-24T02:03:17.973Z,29.57
2019-01-24T02:05:48.682Z,17.15
2019-01-24T02:08:19.246Z,30.52
2019-01-24T02:10:49.477Z,30.82
2019-01-24T02:13:19.624Z,25.70
2019-01-24T02:15:49.926Z,28.65
2019-01-24T02:18:20.264Z,23.22
2019-01-24T02:20:50.400Z,26.77
2019-01-24T02:23:20.439Z,19.55
2019-01-24T02:25:50.758Z,27.15
2019-01-24T02:28:20.659Z,30.27
2019-01-24T02:30:50.652Z,24.87
2019-01-24T02:33:21.042Z,22.20
2019-01-24T02:35:51.043Z,26.60
2019-01-24T02:38:21.178Z,34.55
2019-01-24T02:44:36.142Z,29.92
2019-01-24T02:47:06.164Z,30.20
2019-01-24T02:49:36.354Z,28.57
2019-01-24T02:52:06.558Z,23.12
2019-01-24T03:06:04.290Z,28.52
2019-01-24T03:18:29.662Z,27.98
2019-01-24T03:21:00.098Z,26.25
2019-01-24T03:23:30.481Z,31.37
2019-01-24T03:26:00.371Z,29.32
2019-01-24T03:28:30.546Z,30.80
2019-01-24T03:31:00.715Z,28.07
2019-01-24T03:33:31.371Z,28.77
2019-01-24T03:36:01.978Z,30.10
2019-01-24T03:38:31.898Z,30.55
2019-01-24T03:41:02.161Z,32.10
2019-01-24T03:43:32.285Z,31.02
2019-01-24T03:46:02.205Z,30.52
2019-01-24T03:48:32.740Z,34.85
2019-01-24T03:51:02.636Z,27.48
2019-01-24T03:53:32.706Z,29.32
2019-01-24T03:56:02.716Z,29.95
2019-01-24T03:58:33.037Z,31.85
2019-01-24T04:01:03.545Z,28.85
2019-01-24T04:03:36.555Z,31.12
2019-01-24T04:06:06.750Z,26.50
2019-01-24T04:08:37.356Z,27.00
2019-01-24T04:11:07.499Z,13.43
2019-01-24T04:13:37.426Z,25.62
2019-01-24T04:16:07.354Z,24.23
2019-01-24T04:18:37.990Z,24.52
2019-01-24T04:21:07.903Z,29.18
2019-01-24T04:23:37.978Z,26.35
2019-01-24T04:26:08.513Z,25.52
2019-01-24T04:28:38.740Z,27.55
2019-01-24T04:31:08.952Z,26.35
2019-01-24T04:33:39.144Z,24.47
2019-01-24T04:36:09.130Z,29.35
2019-01-24T04:38:39.372Z,25.95
2019-01-24T04:41:09.282Z,27.93
2019-01-24T04:43:39.242Z,28.30
2019-01-24T04:46:09.172Z,27.55
2019-01-24T04:48:39.083Z,28.25
2019-01-24T04:51:09.263Z,30.00
2019-01-24T04:53:39.433Z,28.60
2019-01-24T04:56:09.630Z,25.65
2019-01-24T04:58:39.533Z,28.67
2019-01-24T05:01:09.698Z,27.60
2019-01-24T05:03:39.619Z,25.27
2019-01-24T05:10:02.514Z,26.00
2019-01-24T05:12:32.673Z,24.75
2019-01-24T05:15:02.955Z,27.82
2019-01-24T05:17:32.931Z,28.32
2019-01-24T05:20:03.133Z,29.60
2019-01-24T05:23:45.745Z,24.10
2019-01-24T05:26:16.001Z,23.57
2019-01-24T05:28:46.485Z,18.70
2019-01-24T05:31:16.830Z,27.22
2019-01-24T05:33:47.102Z,27.75
2019-01-24T05:36:17.145Z,25.15
2019-01-24T05:38:47.119Z,27.62
2019-01-24T05:41:17.205Z,26.37
2019-01-24T05:43:47.462Z,20.52
2019-01-24T05:46:17.662Z,30.48
2019-01-24T05:49:45.368Z,28.38
2019-01-24T05:52:19.654Z,28.85
2019-01-24T05:54:47.554Z,27.07
2019-01-24T05:57:17.829Z,28.62
2019-01-24T05:59:48.148Z,26.68
2019-01-24T06:06:09.478Z,28.98
2019-01-24T06:08:39.892Z,30.23
2019-01-24T06:11:10.113Z,28.20
2019-01-24T06:16:57.323Z,29.52
2019-01-24T06:19:27.338Z,28.80
2019-01-24T06:21:57.321Z,30.35
2019-01-24T06:24:27.506Z,27.70
2019-01-24T06:26:57.924Z,28.57
2019-01-24T06:29:28.095Z,28.12
2019-01-24T06:31:58.041Z,29.20
2019-01-24T06:34:27.955Z,27.90
2019-01-24T06:36:57.831Z,29.57
2019-01-24T06:39:28.178Z,31.62
2019-01-24T06:41:58.476Z,25.75
2019-01-24T06:44:28.394Z,31.05
2019-01-24T06:46:58.361Z,30.17
2019-01-24T06:49:28.455Z,31.33
2019-01-24T06:51:59.373Z,31.77
2019-01-24T06:54:29.595Z,30.10
2019-01-24T06:56:59.714Z,30.97
2019-01-24T06:59:29.712Z,37.45
2019-01-24T07:01:59.694Z,37.48
2019-01-24T07:04:29.811Z,35.00
2019-01-24T07:07:00.061Z,34.00
2019-01-24T07:09:29.993Z,39.20
2019-01-24T07:11:59.936Z,40.17
2019-01-24T07:14:30.493Z,42.25
2019-01-24T07:17:01.263Z,38.48
2019-01-24T07:19:31.506Z,36.53
2019-01-24T07:22:01.686Z,37.03
2019-01-24T07:24:31.631Z,34.95
2019-01-24T07:27:01.561Z,38.08
2019-01-24T07:29:31.564Z,34.95
2019-01-24T07:32:01.467Z,34.23
2019-01-24T07:34:32.094Z,32.53
2019-01-24T07:37:03.154Z,34.25
2019-01-24T07:39:33.284Z,33.98
2019-01-24T07:42:03.206Z,25.50
2019-01-24T07:44:33.979Z,23.60
2019-01-24T07:47:04.004Z,28.20
2019-01-24T07:49:34.162Z,32.53
2019-01-24T07:52:04.189Z,17.62
2019-01-24T07:54:34.376Z,22.73
2019-01-24T07:57:04.631Z,28.73
2019-01-24T07:59:35.276Z,31.70
2019-01-24T08:02:05.479Z,29.63
2019-01-24T08:04:35.395Z,28.60
2019-01-24T08:07:05.779Z,28.05
2019-01-24T08:09:36.015Z,27.62
2019-01-24T08:12:07.733Z,27.10
2019-01-24T08:14:37.935Z,12.43
2019-01-24T08:17:07.923Z,24.43
2019-01-24T08:19:37.941Z,29.35
2019-01-24T08:22:07.931Z,29.12
2019-01-24T08:24:38.127Z,28.67
2019-01-24T08:27:08.292Z,26.37
2019-01-24T08:29:38.541Z,23.47
2019-01-24T08:32:08.572Z,25.25
2019-01-24T08:38:29.747Z,30.05
2019-01-24T08:40:59.652Z,31.80
2019-01-24T08:43:29.828Z,27.37
2019-01-24T08:49:44.809Z,25.95
2019-01-24T08:52:14.720Z,28.05
2019-01-24T08:54:44.883Z,27.30
2019-01-24T09:01:06.333Z,26.93
2019-01-24T09:13:57.592Z,27.62
2019-01-24T09:16:27.519Z,22.22
2019-01-24T09:18:57.741Z,29.10
2019-01-24T09:21:27.729Z,31.55
2019-01-24T09:23:58.118Z,26.52
2019-01-24T09:26:28.507Z,27.15
2019-01-24T09:28:58.429Z,29.45
2019-01-24T09:31:28.596Z,30.60
2019-01-24T09:33:58.525Z,30.97
2019-01-24T09:36:29.321Z,28.77
2019-01-24T09:38:59.916Z,28.20
2019-01-24T09:41:30.363Z,31.52
2019-01-24T09:44:00.526Z,20.50
2019-01-24T09:46:30.433Z,27.52
2019-01-24T09:49:00.877Z,29.55
2019-01-24T09:51:30.878Z,31.00
2019-01-24T09:54:00.820Z,31.00
2019-01-24T09:56:30.991Z,30.65
2019-01-24T09:59:01.078Z,30.82
2019-01-24T10:01:31.079Z,27.13
2019-01-24T10:04:01.011Z,26.57
2019-01-24T10:06:36.256Z,30.08
2019-01-24T10:09:04.588Z,29.72
2019-01-24T10:11:34.950Z,29.25
2019-01-24T10:14:05.598Z,32.53
2019-01-24T10:16:35.836Z,28.50
2019-01-24T10:19:06.281Z,20.82
2019-01-24T10:21:36.258Z,27.73
2019-01-24T10:24:06.375Z,29.90
2019-01-24T10:26:36.296Z,31.95
2019-01-24T10:29:06.362Z,31.10
2019-01-24T10:31:36.459Z,28.20
2019-01-24T10:34:06.903Z,30.92
2019-01-24T10:36:42.864Z,27.17
2019-01-24T10:39:10.356Z,28.47
2019-01-24T10:41:40.521Z,28.42
2019-01-24T10:44:10.431Z,29.57
2019-01-24T10:46:40.627Z,27.02
2019-01-24T10:49:10.857Z,31.00
2019-01-24T10:51:40.805Z,27.15
2019-01-24T10:54:10.870Z,30.90
2019-01-24T10:56:41.030Z,25.52
2019-01-24T10:59:11.075Z,29.20
2019-01-24T11:01:41.384Z,28.95
2019-01-24T11:04:11.440Z,26.05
2019-01-24T11:06:41.805Z,28.30
2019-01-24T11:09:11.809Z,25.72
2019-01-24T11:11:41.849Z,28.83
2019-01-24T11:14:12.055Z,23.18
2019-01-24T11:16:42.142Z,23.95
2019-01-24T11:19:12.172Z,28.25
2019-01-24T11:21:42.188Z,21.65
2019-01-24T11:28:03.358Z,28.40
2019-01-24T11:40:59.178Z,28.95
2019-01-24T11:43:29.267Z,29.92
2019-01-24T11:45:59.447Z,26.75
2019-01-24T11:48:29.435Z,24.98
2019-01-24T11:50:59.607Z,29.37
2019-01-24T11:53:30.838Z,23.95
2019-01-24T11:59:52.879Z,24.45
2019-01-24T12:02:22.875Z,28.17
2019-01-24T12:11:30.398Z,24.98
2019-01-24T12:14:00.670Z,26.10
2019-01-24T12:16:31.451Z,24.40
2019-01-24T12:19:01.644Z,27.65
2019-01-24T12:21:31.885Z,24.15
2019-01-24T12:24:01.889Z,24.50
2019-01-24T12:26:31.819Z,25.17
2019-01-24T12:29:02.003Z,24.82
2019-01-24T12:31:31.972Z,24.43
2019-01-24T12:34:02.380Z,25.68
2019-01-24T12:36:32.789Z,23.18
2019-01-24T12:39:03.223Z,28.65
2019-01-24T12:41:33.397Z,26.30
2019-01-24T12:47:44.167Z,25.00
2019-01-24T12:50:15.993Z,22.02
2019-01-24T12:52:46.188Z,26.55
2019-01-24T12:55:16.751Z,24.07
2019-01-24T12:57:47.143Z,27.02
2019-01-24T13:00:25.294Z,21.35
2019-01-24T13:02:55.396Z,24.77
2019-01-24T13:05:25.428Z,28.00
2019-01-24T13:07:55.498Z,28.80
2019-01-24T13:10:26.715Z,28.75
2019-01-24T13:12:56.956Z,28.40
2019-01-24T13:15:30.071Z,28.57
2019-01-24T13:18:00.059Z,27.35
2019-01-24T13:20:30.522Z,24.98
2019-01-24T13:23:00.468Z,27.10
2019-01-24T13:25:33.737Z,30.75
2019-01-24T13:28:03.919Z,25.45
2019-01-24T13:30:35.137Z,26.57
2019-01-24T13:33:06.635Z,29.07
2019-01-24T13:35:37.214Z,26.52
2019-01-24T13:38:07.891Z,28.15
2019-01-24T13:40:38.368Z,27.87
2019-01-24T13:43:09.137Z,26.37
2019-01-24T13:45:40.378Z,28.25
2019-01-24T13:48:11.099Z,29.77
2019-01-24T13:50:41.277Z,27.40
2019-01-24T13:53:11.608Z,31.68
2019-01-24T13:55:41.833Z,28.47
2019-01-24T13:58:12.326Z,26.33
2019-01-24T14:00:43.230Z,28.15
2019-01-24T14:03:58.845Z,27.40
2019-01-24T14:06:28.770Z,23.85
2019-01-24T14:08:58.801Z,18.62
2019-01-24T14:11:28.907Z,16.93
2019-01-24T14:13:59.091Z,27.52
2019-01-24T14:16:29.212Z,25.55
2019-01-24T14:18:59.388Z,25.95
2019-01-24T14:21:29.327Z,28.67
2019-01-24T14:23:59.257Z,24.40
2019-01-24T14:26:30.065Z,22.13
2019-01-24T14:29:00.118Z,32.42
2019-01-24T14:35:21.214Z,24.55
2019-01-24T14:37:51.424Z,27.02
2019-01-24T14:40:21.649Z,27.32
2019-01-24T14:42:51.593Z,26.50
2019-01-24T14:49:06.182Z,25.60
2019-01-24T14:51:36.363Z,26.48
2019-01-24T14:54:06.507Z,27.40
2019-01-24T14:56:36.687Z,28.80
2019-01-24T14:59:07.419Z,28.25
2019-01-24T15:01:37.485Z,32.48
2019-01-24T15:04:07.576Z,30.25
2019-01-24T15:06:37.725Z,29.02
2019-01-24T15:09:09.763Z,32.35
2019-01-24T15:11:40.493Z,33.30
2019-01-24T15:14:10.659Z,32.25
2019-01-24T15:16:40.957Z,28.40
2019-01-24T15:19:11.854Z,32.03
2019-01-24T15:21:42.193Z,30.95
2019-01-24T15:24:12.461Z,27.67
2019-01-24T15:26:42.482Z,30.57
2019-01-24T15:29:12.575Z,30.62
2019-01-24T15:31:42.494Z,29.37
2019-01-24T15:34:13.860Z,32.93
2019-01-24T15:36:43.772Z,29.30
2019-01-24T15:39:14.014Z,27.17
2019-01-24T15:41:44.475Z,29.20
2019-01-24T15:44:14.458Z,29.70
2019-01-24T15:46:44.618Z,32.88
2019-01-24T15:49:14.613Z,28.85
2019-01-24T15:51:44.557Z,29.65
2019-01-24T15:54:14.818Z,31.85
2019-01-24T15:56:44.823Z,29.50
2019-01-24T15:59:14.833Z,29.95
2019-01-24T16:01:45.141Z,32.25
2019-01-24T16:04:19.789Z,32.60
2019-01-24T16:06:47.129Z,33.42
2019-01-24T16:09:17.041Z,32.17
2019-01-24T16:11:46.981Z,32.20
2019-01-24T16:14:17.863Z,32.95
2019-01-24T16:16:48.252Z,33.88
2019-01-24T16:19:18.249Z,29.57
2019-01-24T16:21:48.172Z,29.00
2019-01-24T16:24:18.247Z,25.27
2019-01-24T16:26:48.188Z,33.02
2019-01-24T16:29:18.697Z,32.78
2019-01-24T16:31:49.009Z,23.10
2019-01-24T16:34:19.753Z,26.45
2019-01-24T16:36:49.747Z,30.88
2019-01-24T16:39:20.047Z,31.23
2019-01-24T16:41:49.976Z,23.20
2019-01-24T16:44:20.712Z,28.12
2019-01-24T16:46:50.889Z,34.20
2019-01-24T17:10:39.600Z,25.20
2019-01-24T17:23:39.174Z,28.32
2019-01-24T17:26:09.708Z,30.32
2019-01-24T17:28:39.980Z,27.02
2019-01-24T17:31:10.174Z,29.55
2019-01-24T17:37:24.876Z,31.48
2019-01-24T17:39:55.150Z,33.40
2019-01-24T17:42:25.174Z,30.97
2019-01-24T17:44:55.668Z,30.88
2019-01-24T17:47:25.997Z,32.33
2019-01-24T17:49:56.421Z,33.88
2019-01-24T17:52:26.873Z,30.02
2019-01-24T17:54:56.834Z,30.12
2019-01-24T17:57:27.151Z,28.98
2019-01-24T17:59:57.087Z,32.50
2019-01-24T18:02:27.093Z,32.48
2019-01-24T18:04:57.333Z,33.85
2019-01-24T18:07:30.544Z,32.95
2019-01-24T18:10:00.522Z,32.63
2019-01-24T18:16:21.928Z,28.47
2019-01-24T18:18:52.119Z,30.70
2019-01-24T18:21:22.048Z,34.90
2019-01-24T18:23:52.112Z,34.43
2019-01-24T18:26:22.064Z,33.10
2019-01-24T18:28:52.612Z,32.95
2019-01-24T18:31:22.745Z,28.85
2019-01-24T18:33:52.843Z,38.98
2019-01-24T18:36:23.752Z,32.28
2019-01-24T18:38:53.892Z,36.20
2019-01-24T18:41:23.964Z,35.55
2019-01-24T18:43:53.887Z,29.70
2019-01-24T18:46:24.139Z,31.52
2019-01-24T18:48:54.439Z,34.15
2019-01-24T18:51:24.789Z,33.15
2019-01-24T18:53:54.982Z,34.53
2019-01-24T18:56:25.252Z,34.35
2019-01-24T18:58:55.242Z,32.80
2019-01-24T19:01:25.904Z,28.98
2019-01-24T19:03:56.466Z,35.05
2019-01-24T19:06:27.863Z,35.40
2019-01-24T19:08:57.921Z,33.13
2019-01-24T19:11:28.089Z,38.42
2019-01-24T19:13:58.520Z,34.27
2019-01-24T19:16:28.542Z,37.42
2019-01-24T19:18:58.701Z,34.20
2019-01-24T19:21:28.621Z,30.32
2019-01-24T19:24:00.463Z,37.90
2019-01-24T19:26:30.405Z,34.58
2019-01-24T19:29:00.346Z,34.90
2019-01-24T19:31:30.286Z,38.17
2019-01-24T19:34:00.255Z,38.50
2019-01-24T19:36:30.720Z,44.23
2019-01-24T19:39:01.424Z,43.78
2019-01-24T19:45:19.297Z,39.98
2019-01-24T19:47:49.518Z,34.05
2019-01-24T19:50:25.420Z,34.27
2019-01-24T19:52:55.828Z,36.03
2019-01-24T19:55:26.605Z,41.68
2019-01-24T19:57:57.896Z,42.17
2019-01-24T20:04:19.220Z,37.83
2019-01-24T20:06:49.317Z,39.40
2019-01-24T20:09:19.591Z,39.48
2019-01-24T20:11:49.691Z,42.45
2019-01-24T20:14:20.121Z,40.83
2019-01-24T20:16:50.160Z,37.38
2019-01-24T20:19:20.233Z,35.78
2019-01-24T20:21:50.424Z,35.70
2019-01-24T20:24:21.215Z,30.65
2019-01-24T20:26:51.137Z,31.55
2019-01-24T20:29:21.325Z,26.42
2019-01-24T20:31:51.252Z,28.65
2019-01-24T20:34:21.491Z,32.28
2019-01-24T20:36:51.917Z,33.73
2019-01-24T20:39:21.992Z,29.77
2019-01-24T20:41:52.018Z,32.13
2019-01-24T20:44:22.189Z,28.67
2019-01-24T20:46:52.419Z,28.70
2019-01-24T20:49:22.401Z,30.48
2019-01-24T20:51:52.870Z,32.55
2019-01-24T20:55:22.634Z,29.35
2019-01-24T20:57:53.277Z,27.85
2019-01-24T21:07:36.596Z,30.08
2019-01-24T21:10:08.796Z,26.20
2019-01-24T21:12:39.244Z,26.15
2019-01-24T21:15:10.642Z,28.27
2019-01-24T21:17:40.873Z,24.12
2019-01-24T21:20:14.709Z,29.15
2019-01-24T21:22:45.060Z,30.20
2019-01-24T21:29:05.749Z,30.90
2019-01-24T21:31:37.329Z,34.85
2019-01-24T21:34:09.112Z,28.42
2019-01-24T21:36:39.147Z,31.87
2019-01-24T21:39:10.841Z,33.48
2019-01-24T21:41:41.180Z,34.83
2019-01-24T21:44:11.187Z,32.15
2019-01-24T21:46:41.764Z,32.25
2019-01-24T21:49:12.893Z,35.23
2019-01-24T21:51:43.290Z,32.28
2019-01-24T21:54:13.291Z,33.85
2019-01-24T21:56:45.994Z,38.70
2019-01-24T21:59:16.343Z,39.18
2019-01-24T22:13:13.393Z,32.35
2019-01-24T22:15:43.443Z,34.73
2019-01-24T22:18:13.638Z,33.92
2019-01-24T22:20:44.311Z,33.35
2019-01-24T22:23:14.502Z,32.78
2019-01-24T22:25:44.601Z,32.03
2019-01-24T22:28:14.716Z,38.08
2019-01-24T22:30:54.503Z,42.20
2019-01-24T22:33:24.710Z,42.23
2019-01-24T22:35:55.146Z,34.58
2019-01-24T22:38:25.177Z,33.83
2019-01-24T22:40:55.714Z,36.93
2019-01-24T22:43:26.177Z,33.80
2019-01-24T22:45:56.429Z,33.60
2019-01-24T22:48:26.425Z,30.75
2019-01-24T22:50:56.545Z,27.93
2019-01-24T22:53:28.619Z,27.15
2019-01-24T22:55:58.612Z,27.90
2019-01-24T22:58:28.860Z,28.23
2019-01-24T23:01:45.481Z,29.25
2019-01-24T23:04:19.106Z,29.25
2019-01-24T23:06:49.199Z,27.17
2019-01-24T23:09:19.282Z,29.67
2019-01-24T23:11:49.325Z,31.00
2019-01-24T23:14:19.972Z,26.95
2019-01-24T23:16:50.718Z,30.17
2019-01-24T23:19:20.783Z,27.62
2019-01-24T23:21:50.706Z,26.40
2019-01-24T23:24:20.995Z,25.52
2019-01-24T23:38:20.946Z,27.93
2019-01-24T23:40:51.432Z,31.35
2019-01-24T23:49:59.015Z,29.57
2019-01-24T23:52:28.995Z,31.12
2019-01-24T23:54:59.291Z,29.40
2019-01-24T23:57:29.991Z,30.92
